createdAt,value
2018-09-10T00:00:03.269Z,7.27
2018-09-10T00:03:07.488Z,6.73
2018-09-10T00:06:12.420Z,9.10
2018-09-10T00:09:16.674Z,10.17
2018-09-10T00:12:20.872Z,9.83
2018-09-10T00:15:25.088Z,8.97
2018-09-10T00:18:29.291Z,7.47
2018-09-10T00:21:33.529Z,8.07
2018-09-10T00:24:37.737Z,9.13
2018-09-10T00:27:41.944Z,8.73
2018-09-10T00:30:46.144Z,8.40
2018-09-10T00:33:50.360Z,6.60
2018-09-10T00:36:54.570Z,10.77
2018-09-10T00:39:58.794Z,9.87
2018-09-10T00:43:02.997Z,6.70
2018-09-10T00:46:07.241Z,6.83
2018-09-10T00:49:11.491Z,9.03
2018-09-10T00:52:15.704Z,8.27
2018-09-10T00:55:19.922Z,6.53
2018-09-10T00:58:24.170Z,8.93
2018-09-10T01:01:28.377Z,7.80
2018-09-10T01:04:32.599Z,8.10
2018-09-10T01:07:36.824Z,7.10
2018-09-10T01:10:41.054Z,7.83
2018-09-10T01:13:45.272Z,6.97
2018-09-10T01:16:49.476Z,6.80
2018-09-10T01:19:54.337Z,7.97
2018-09-10T01:22:58.581Z,7.90
2018-09-10T01:26:03.580Z,8.57
2018-09-10T01:29:07.793Z,8.10
2018-09-10T01:32:12.037Z,7.00
2018-09-10T01:35:16.234Z,7.03
2018-09-10T01:38:20.457Z,8.57
2018-09-10T01:41:24.708Z,6.83
2018-09-10T01:44:28.925Z,7.97
2018-09-10T01:47:33.108Z,8.20
2018-09-10T01:50:37.309Z,8.87
2018-09-10T01:53:41.529Z,12.63
2018-09-10T01:56:45.733Z,6.23
2018-09-10T01:59:49.937Z,6.17
2018-09-10T02:02:54.345Z,9.70
2018-09-10T02:05:58.660Z,8.43
2018-09-10T02:09:02.868Z,9.70
2018-09-10T02:12:11.172Z,6.40
2018-09-10T02:15:15.413Z,10.00
2018-09-10T02:18:20.913Z,9.27
2018-09-10T02:21:25.137Z,8.93
2018-09-10T02:24:29.337Z,8.30
2018-09-10T02:27:33.619Z,10.97
2018-09-10T02:30:37.769Z,7.57
2018-09-10T02:33:42.027Z,8.63
2018-09-10T02:36:46.233Z,9.53
2018-09-10T02:39:50.461Z,7.73
2018-09-10T02:42:54.690Z,8.17
2018-09-10T02:45:58.900Z,11.87
2018-09-10T02:49:03.092Z,7.50
2018-09-10T02:52:07.310Z,9.23
2018-09-10T02:55:11.595Z,9.77
2018-09-10T02:58:15.856Z,9.17
2018-09-10T03:01:20.082Z,7.23
2018-09-10T03:04:24.297Z,10.87
2018-09-10T03:07:28.935Z,9.70
2018-09-10T03:10:33.178Z,7.80
2018-09-10T03:13:37.416Z,8.33
2018-09-10T03:16:41.636Z,7.80
2018-09-10T03:19:45.866Z,11.07
2018-09-10T03:22:50.089Z,7.30
2018-09-10T03:25:54.284Z,9.30
2018-09-10T03:28:58.506Z,8.67
2018-09-10T03:32:02.736Z,11.43
2018-09-10T03:35:06.949Z,8.80
2018-09-10T03:38:11.881Z,10.67
2018-09-10T03:41:16.095Z,10.77
2018-09-10T03:44:20.324Z,13.10
2018-09-10T03:47:24.556Z,10.13
2018-09-10T03:50:28.797Z,11.03
2018-09-10T03:53:32.997Z,8.60
2018-09-10T03:56:37.237Z,11.40
2018-09-10T03:59:41.449Z,11.27
2018-09-10T04:02:45.669Z,11.07
2018-09-10T04:05:49.848Z,8.93
2018-09-10T04:08:54.038Z,9.43
2018-09-10T04:11:58.232Z,10.20
2018-09-10T04:15:02.469Z,14.70
2018-09-10T04:18:06.704Z,15.27
2018-09-10T04:21:11.637Z,11.27
2018-09-10T04:24:15.841Z,9.73
2018-09-10T04:27:20.079Z,11.80
2018-09-10T04:30:24.338Z,10.03
2018-09-10T04:33:28.548Z,11.97
2018-09-10T04:36:32.781Z,10.53
2018-09-10T04:39:37.031Z,12.30
2018-09-10T04:42:41.301Z,13.87
2018-09-10T04:45:45.517Z,14.77
2018-09-10T04:48:49.753Z,15.40
2018-09-10T04:51:53.949Z,17.37
2018-09-10T04:54:58.181Z,15.43
2018-09-10T04:58:02.712Z,14.40
2018-09-10T05:01:06.945Z,15.53
2018-09-10T05:04:11.165Z,14.67
2018-09-10T05:07:15.388Z,17.13
2018-09-10T05:10:19.614Z,16.97
2018-09-10T05:13:23.894Z,16.07
2018-09-10T05:16:28.114Z,17.97
2018-09-10T05:19:33.790Z,17.53
2018-09-10T05:22:38.053Z,21.87
2018-09-10T05:25:42.301Z,18.73
2018-09-10T05:28:46.528Z,20.03
2018-09-10T05:31:50.797Z,18.93
2018-09-10T05:34:55.033Z,15.47
2018-09-10T05:37:59.288Z,16.50
2018-09-10T05:41:03.510Z,19.63
2018-09-10T05:44:07.793Z,20.97
2018-09-10T05:47:12.161Z,15.30
2018-09-10T05:50:16.393Z,18.70
2018-09-10T05:53:20.746Z,20.40
2018-09-10T05:56:24.904Z,18.87
2018-09-10T05:59:29.135Z,18.67
2018-09-10T06:02:33.399Z,19.17
2018-09-10T06:05:37.636Z,18.97
2018-09-10T06:08:41.924Z,17.73
2018-09-10T06:11:46.156Z,21.13
2018-09-10T06:14:50.384Z,22.50
2018-09-10T06:17:54.641Z,21.17
2018-09-10T06:20:58.873Z,19.63
2018-09-10T06:24:03.109Z,19.97
2018-09-10T06:27:07.353Z,20.37
2018-09-10T06:30:11.632Z,24.30
2018-09-10T06:33:15.885Z,21.97
2018-09-10T06:36:20.142Z,23.13
2018-09-10T06:39:24.364Z,23.63
2018-09-10T06:42:28.628Z,26.53
2018-09-10T06:45:32.849Z,22.00
2018-09-10T06:48:37.109Z,21.67
2018-09-10T06:51:41.352Z,18.67
2018-09-10T06:54:45.591Z,26.67
2018-09-10T06:57:49.877Z,20.07
2018-09-10T07:00:54.120Z,21.77
2018-09-10T07:03:58.340Z,21.00
2018-09-10T07:07:02.599Z,26.63
2018-09-10T07:10:07.561Z,23.97
2018-09-10T07:13:11.867Z,30.83
2018-09-10T07:16:16.054Z,28.80
2018-09-10T07:19:20.301Z,24.63
2018-09-10T07:22:24.512Z,22.73
2018-09-10T07:25:28.791Z,24.37
2018-09-10T07:28:33.012Z,22.93
2018-09-10T07:31:37.251Z,17.93
2018-09-10T07:34:41.503Z,24.73
2018-09-10T07:37:45.730Z,20.43
2018-09-10T07:40:49.957Z,26.47
2018-09-10T07:43:54.366Z,25.23
2018-09-10T07:46:58.634Z,25.67
2018-09-10T07:50:02.896Z,26.33
2018-09-10T07:53:07.133Z,29.77
2018-09-10T07:56:11.368Z,21.60
2018-09-10T07:59:15.625Z,24.27
2018-09-10T08:02:19.913Z,23.90
2018-09-10T08:05:24.156Z,26.97
2018-09-10T08:08:28.370Z,20.10
2018-09-10T08:11:32.585Z,25.60
2018-09-10T08:14:36.849Z,19.27
2018-09-10T08:17:41.092Z,21.03
2018-09-10T08:20:45.312Z,18.33
2018-09-10T08:23:49.569Z,14.70
2018-09-10T08:26:53.777Z,13.40
2018-09-10T08:29:59.038Z,15.93
2018-09-10T08:33:03.274Z,13.03
2018-09-10T08:36:07.569Z,10.43
2018-09-10T08:39:11.795Z,9.03
2018-09-10T08:42:16.049Z,10.73
2018-09-10T08:45:20.285Z,10.77
2018-09-10T08:48:24.586Z,7.20
2018-09-10T08:51:28.777Z,11.27
2018-09-10T08:54:33.189Z,9.17
2018-09-10T08:57:37.276Z,6.73
2018-09-10T09:00:41.518Z,10.17
2018-09-10T09:03:45.733Z,6.57
2018-09-10T09:06:50.019Z,6.13
2018-09-10T09:09:54.258Z,13.57
2018-09-10T09:12:58.510Z,7.90
2018-09-10T09:16:02.762Z,12.50
2018-09-10T09:19:06.974Z,8.67
2018-09-10T09:22:11.185Z,11.03
2018-09-10T09:25:15.405Z,15.57
2018-09-10T09:28:20.517Z,9.43
2018-09-10T09:31:24.738Z,10.97
2018-09-10T09:34:33.061Z,14.10
2018-09-10T09:37:42.577Z,7.20
2018-09-10T09:40:52.142Z,9.57
2018-09-10T09:44:01.757Z,12.37
2018-09-10T09:47:06.013Z,8.63
2018-09-10T09:50:10.231Z,7.37
2018-09-10T09:53:14.457Z,16.17
2018-09-10T09:56:18.661Z,10.27
2018-09-10T09:59:22.886Z,7.87
2018-09-10T10:02:32.317Z,7.93
2018-09-10T10:05:36.516Z,8.47
2018-09-10T10:08:40.747Z,9.60
2018-09-10T10:11:44.974Z,6.23
2018-09-10T10:14:49.220Z,10.73
2018-09-10T10:17:53.418Z,6.97
2018-09-10T10:20:57.637Z,6.37
2018-09-10T10:24:01.869Z,6.57
2018-09-10T10:27:06.096Z,5.10
2018-09-10T10:30:10.327Z,8.23
2018-09-10T10:33:14.557Z,6.00
2018-09-10T10:36:18.778Z,8.87
2018-09-10T10:39:23.063Z,5.03
2018-09-10T10:42:27.233Z,6.57
2018-09-10T10:45:31.428Z,9.57
2018-09-10T10:48:35.648Z,3.37
2018-09-10T10:51:39.837Z,6.83
2018-09-10T10:54:44.065Z,11.13
2018-09-10T10:57:48.264Z,5.80
2018-09-10T11:00:52.486Z,5.77
2018-09-10T11:03:56.693Z,5.67
2018-09-10T11:07:00.904Z,9.37
2018-09-10T11:10:05.461Z,5.43
2018-09-10T11:13:09.693Z,5.83
2018-09-10T11:16:13.908Z,3.60
2018-09-10T11:19:18.150Z,8.07
2018-09-10T11:22:22.374Z,6.00
2018-09-10T11:25:26.642Z,5.03
2018-09-10T11:28:30.845Z,6.13
2018-09-10T11:31:35.058Z,6.10
2018-09-10T11:34:39.319Z,5.57
2018-09-10T11:37:43.533Z,5.97
2018-09-10T11:40:47.768Z,7.17
2018-09-10T11:43:51.984Z,5.40
2018-09-10T11:46:56.205Z,8.80
2018-09-10T11:50:00.418Z,10.23
2018-09-10T11:53:04.650Z,7.87
2018-09-10T11:56:08.930Z,5.70
2018-09-10T11:59:13.134Z,9.57
2018-09-10T12:02:17.345Z,7.40
2018-09-10T12:05:21.584Z,5.87
2018-09-10T12:08:25.812Z,4.53
2018-09-10T12:11:30.041Z,9.37
2018-09-10T12:14:34.424Z,4.00
2018-09-10T12:17:38.649Z,6.53
2018-09-10T12:20:42.874Z,7.73
2018-09-10T12:23:47.090Z,5.10
2018-09-10T12:26:51.345Z,5.03
2018-09-10T12:29:55.553Z,6.37
2018-09-10T12:32:59.777Z,6.43
2018-09-10T12:36:04.126Z,6.83
2018-09-10T12:39:10.417Z,5.73
2018-09-10T12:42:14.620Z,6.47
2018-09-10T12:45:18.874Z,6.47
2018-09-10T12:48:23.104Z,4.63
2018-09-10T12:51:27.332Z,8.07
2018-09-10T12:54:31.541Z,7.07
2018-09-10T12:57:35.792Z,9.27
2018-09-10T13:00:40.022Z,5.27
2018-09-10T13:03:44.245Z,7.10
2018-09-10T13:06:48.468Z,6.90
2018-09-10T13:09:52.688Z,5.73
2018-09-10T13:12:56.915Z,4.33
2018-09-10T13:16:01.178Z,4.53
2018-09-10T13:19:05.511Z,7.03
2018-09-10T13:22:09.792Z,6.67
2018-09-10T13:25:13.996Z,5.37
2018-09-10T13:28:18.233Z,6.47
2018-09-10T13:31:22.564Z,8.47
2018-09-10T13:34:26.812Z,6.07
2018-09-10T13:37:31.054Z,5.93
2018-09-10T13:40:35.275Z,4.93
2018-09-10T13:43:39.575Z,5.70
2018-09-10T13:46:43.853Z,25.63
2018-09-10T13:49:48.085Z,15.53
2018-09-10T13:52:52.277Z,5.93
2018-09-10T13:55:56.487Z,27.80
2018-09-10T13:59:00.709Z,6.07
2018-09-10T14:02:04.920Z,8.70
2018-09-10T14:05:09.169Z,4.83
2018-09-10T14:08:13.386Z,6.00
2018-09-10T14:11:17.720Z,18.93
2018-09-10T14:14:21.919Z,5.57
2018-09-10T14:17:26.157Z,6.27
2018-09-10T14:20:30.393Z,4.80
2018-09-10T14:23:34.649Z,4.70
2018-09-10T14:26:38.883Z,6.33
2018-09-10T14:29:43.089Z,7.20
2018-09-10T14:32:47.309Z,6.90
2018-09-10T14:35:51.556Z,9.93
2018-09-10T14:38:55.788Z,4.60
2018-09-10T14:42:00.085Z,8.40
2018-09-10T14:45:04.326Z,6.47
2018-09-10T14:48:08.548Z,6.80
2018-09-10T14:51:12.788Z,7.17
2018-09-10T14:54:17.002Z,9.00
2018-09-10T14:57:21.249Z,7.93
2018-09-10T15:00:26.348Z,9.90
2018-09-10T15:03:30.575Z,6.70
2018-09-10T15:06:34.829Z,6.83
2018-09-10T15:09:39.030Z,9.87
2018-09-10T15:12:43.237Z,9.10
2018-09-10T15:15:47.520Z,5.33
2018-09-10T15:18:51.825Z,8.53
2018-09-10T15:21:55.990Z,7.13
2018-09-10T15:25:00.201Z,11.47
2018-09-10T15:28:04.426Z,10.23
2018-09-10T15:31:08.656Z,11.20
2018-09-10T15:34:12.880Z,8.60
2018-09-10T15:37:17.181Z,10.27
2018-09-10T15:40:21.416Z,5.73
2018-09-10T15:43:25.626Z,8.03
2018-09-10T15:46:29.925Z,7.13
2018-09-10T15:49:34.128Z,9.47
2018-09-10T15:52:38.337Z,9.40
2018-09-10T15:55:42.532Z,8.37
2018-09-10T15:58:46.764Z,6.00
2018-09-10T16:01:50.981Z,7.37
2018-09-10T16:04:55.238Z,8.47
2018-09-10T16:07:59.472Z,9.07
2018-09-10T16:11:03.676Z,8.97
2018-09-10T16:14:07.917Z,8.23
2018-09-10T16:17:12.141Z,9.37
2018-09-10T16:20:16.349Z,7.13
2018-09-10T16:23:20.576Z,10.97
2018-09-10T16:26:24.801Z,7.80
2018-09-10T16:29:29.048Z,7.73
2018-09-10T16:32:33.257Z,8.77
2018-09-10T16:35:37.492Z,9.93
2018-09-10T16:38:41.702Z,11.23
2018-09-10T16:41:45.933Z,15.03
2018-09-10T16:44:50.161Z,15.93
2018-09-10T16:47:54.364Z,9.13
2018-09-10T16:50:58.599Z,13.80
2018-09-10T16:54:02.900Z,11.57
2018-09-10T16:57:07.080Z,7.73
2018-09-10T17:00:11.327Z,10.63
2018-09-10T17:03:15.552Z,8.53
2018-09-10T17:06:19.789Z,7.77
2018-09-10T17:09:23.976Z,7.00
2018-09-10T17:12:28.199Z,5.83
2018-09-10T17:15:32.391Z,6.10
2018-09-10T17:18:36.610Z,9.10
2018-09-10T17:21:40.808Z,9.63
2018-09-10T17:24:45.044Z,6.50
2018-09-10T17:27:49.237Z,9.03
2018-09-10T17:30:53.501Z,9.80
2018-09-10T17:33:57.692Z,6.80
2018-09-10T17:37:01.902Z,7.47
2018-09-10T17:40:06.169Z,8.63
2018-09-10T17:43:10.561Z,9.17
2018-09-10T17:46:15.337Z,7.87
2018-09-10T17:49:19.540Z,6.20
2018-09-10T17:52:23.717Z,8.30
2018-09-10T17:55:27.942Z,16.80
2018-09-10T17:58:32.146Z,8.97
2018-09-10T18:01:36.353Z,9.33
2018-09-10T18:04:40.589Z,7.57
2018-09-10T18:07:44.769Z,11.53
2018-09-10T18:10:48.981Z,10.13
2018-09-10T18:13:53.191Z,7.60
2018-09-10T18:16:57.409Z,11.83
2018-09-10T18:20:01.626Z,10.90
2018-09-10T18:23:05.848Z,10.50
2018-09-10T18:26:10.073Z,8.13
2018-09-10T18:29:14.309Z,8.50
2018-09-10T18:32:18.517Z,12.17
2018-09-10T18:35:22.722Z,8.97
2018-09-10T18:38:26.937Z,9.30
2018-09-10T18:41:31.142Z,8.23
2018-09-10T18:44:35.356Z,17.30
2018-09-10T18:47:39.561Z,9.27
2018-09-10T18:50:43.770Z,16.30
2018-09-10T18:53:47.998Z,11.97
2018-09-10T18:56:52.200Z,11.60
2018-09-10T18:59:56.448Z,12.57
2018-09-10T19:03:00.659Z,7.57
2018-09-10T19:06:04.897Z,12.37
2018-09-10T19:09:11.051Z,14.77
2018-09-10T19:12:15.261Z,10.70
2018-09-10T19:15:19.481Z,9.37
2018-09-10T19:18:27.768Z,11.50
2018-09-10T19:21:31.993Z,12.07
2018-09-10T19:24:36.233Z,12.20
2018-09-10T19:27:40.455Z,13.53
2018-09-10T19:30:44.664Z,10.47
2018-09-10T19:33:48.911Z,12.37
2018-09-10T19:36:53.100Z,18.50
2018-09-10T19:39:57.308Z,11.20
2018-09-10T19:43:01.533Z,11.40
2018-09-10T19:46:05.785Z,14.20
2018-09-10T19:49:09.988Z,16.33
2018-09-10T19:52:14.223Z,18.30
2018-09-10T19:55:18.416Z,15.23
2018-09-10T19:58:22.615Z,13.50
2018-09-10T20:01:26.833Z,11.43
2018-09-10T20:04:31.056Z,11.90
2018-09-10T20:07:35.289Z,14.37
2018-09-10T20:10:39.504Z,10.53
2018-09-10T20:13:43.707Z,14.97
2018-09-10T20:16:47.897Z,14.50
2018-09-10T20:19:52.110Z,10.17
2018-09-10T20:22:56.288Z,18.20
2018-09-10T20:26:00.600Z,12.43
2018-09-10T20:29:04.801Z,19.50
2018-09-10T20:32:09.350Z,13.97
2018-09-10T20:35:13.670Z,15.63
2018-09-10T20:38:18.498Z,12.57
2018-09-10T20:41:22.687Z,12.13
2018-09-10T20:44:26.924Z,14.73
2018-09-10T20:47:31.156Z,12.00
2018-09-10T20:50:35.404Z,16.70
2018-09-10T20:53:39.615Z,15.60
2018-09-10T20:56:43.824Z,11.23
2018-09-10T20:59:48.037Z,12.07
2018-09-10T21:02:52.253Z,8.97
2018-09-10T21:05:56.459Z,9.77
2018-09-10T21:09:00.677Z,12.47
2018-09-10T21:12:04.971Z,17.50
2018-09-10T21:15:09.195Z,9.33
2018-09-10T21:18:13.433Z,13.23
2018-09-10T21:21:17.641Z,12.00
2018-09-10T21:24:21.888Z,13.03
2018-09-10T21:27:26.106Z,20.47
2018-09-10T21:30:30.324Z,16.30
2018-09-10T21:33:34.533Z,14.43
2018-09-10T21:36:38.783Z,16.97
2018-09-10T21:39:43.021Z,12.60
2018-09-10T21:42:47.257Z,12.63
2018-09-10T21:45:51.508Z,13.77
2018-09-10T21:48:55.743Z,12.97
2018-09-10T21:51:59.968Z,14.33
2018-09-10T21:55:04.245Z,15.70
2018-09-10T21:58:08.504Z,17.30
2018-09-10T22:01:12.741Z,13.97
2018-09-10T22:04:16.964Z,14.47
2018-09-10T22:07:21.177Z,15.83
2018-09-10T22:10:25.427Z,15.07
2018-09-10T22:13:29.626Z,14.50
2018-09-10T22:16:33.859Z,14.27
2018-09-10T22:19:38.069Z,10.27
2018-09-10T22:22:42.498Z,13.97
2018-09-10T22:25:46.733Z,13.30
2018-09-10T22:28:51.035Z,17.10
2018-09-10T22:31:55.224Z,13.57
2018-09-10T22:34:59.448Z,13.50
2018-09-10T22:38:03.676Z,18.33
2018-09-10T22:41:07.925Z,14.90
2018-09-10T22:44:12.144Z,14.30
2018-09-10T22:47:16.364Z,15.97
2018-09-10T22:50:20.605Z,13.13
2018-09-10T22:53:24.780Z,11.37
2018-09-10T22:56:28.986Z,10.47
2018-09-10T22:59:33.237Z,13.60
2018-09-10T23:02:37.463Z,13.23
2018-09-10T23:05:41.669Z,15.20
2018-09-10T23:08:45.948Z,13.73
2018-09-10T23:11:50.118Z,16.47
2018-09-10T23:14:54.355Z,11.30
2018-09-10T23:17:58.593Z,13.70
2018-09-10T23:21:02.816Z,14.33
2018-09-10T23:24:07.086Z,14.53
2018-09-10T23:27:11.326Z,13.30
2018-09-10T23:30:15.554Z,12.07
2018-09-10T23:33:19.780Z,10.17
2018-09-10T23:36:24.049Z,15.57
2018-09-10T23:39:28.253Z,13.17
2018-09-10T23:42:32.498Z,16.73
2018-09-10T23:45:36.711Z,12.83
2018-09-10T23:48:40.950Z,10.40
2018-09-10T23:51:45.197Z,14.87
2018-09-10T23:54:49.457Z,10.60
2018-09-10T23:57:53.657Z,11.83
